Time;durP1;ratioP1;P1;durP2;ratioP2;P2;SDS_P1;SDS_P2;PMS_P1;PMS_P2;Temp;Humidity;BMP_temperature;BMP_pressure;BME280_temperature;BME280_humidity;BME280_pressure;Samples;Min_cycle;Max_cycle;Signal;HPM_P1;HPM_P2
2022/11/01 00:00:20;;;;;;;4.22;3.55;;;;;20.50;100661.00;;;;5060601;28;20223;-80
2022/11/01 00:02:47;;;;;;;5.05;3.78;;;;;20.50;100652.00;;;;5065219;28;20205;-79
2022/11/01 00:05:16;;;;;;;8.45;4.15;;;;;20.50;100655.00;;;;5051390;28;20195;-80
2022/11/01 00:07:43;;;;;;;5.90;3.63;;;;;20.50;100652.00;;;;5052495;28;20192;-79
2022/11/01 00:10:11;;;;;;;5.00;3.58;;;;;20.50;100651.00;;;;5051409;28;20207;-80
2022/11/01 00:12:38;;;;;;;8.10;3.80;;;;;20.50;100646.00;;;;5052242;28;20195;-80
2022/11/01 00:15:06;;;;;;;6.80;3.50;;;;;20.50;100645.00;;;;5054404;28;20184;-79
2022/11/01 00:17:33;;;;;;;9.82;3.50;;;;;20.50;100640.00;;;;5048138;28;20196;-80
2022/11/01 00:20:01;;;;;;;7.85;3.88;;;;;20.50;100654.00;;;;5056530;28;20214;-80
2022/11/01 00:22:29;;;;;;;8.18;3.42;;;;;20.50;100651.00;;;;5068299;28;20198;-80
2022/11/01 00:24:57;;;;;;;4.53;3.40;;;;;20.50;100641.00;;;;5051016;28;20188;-80
2022/11/01 00:27:24;;;;;;;5.78;3.42;;;;;20.50;100642.00;;;;5064107;28;20207;-80
2022/11/01 00:29:51;;;;;;;8.27;3.58;;;;;20.50;100634.00;;;;5056945;28;20210;-80
2022/11/01 00:32:18;;;;;;;6.80;3.70;;;;;20.50;100638.00;;;;5049095;28;20180;-79
2022/11/01 00:34:46;;;;;;;9.75;3.50;;;;;20.50;100636.00;;;;5047721;28;20234;-79
2022/11/01 00:37:13;;;;;;;5.43;4.00;;;;;20.50;100631.00;;;;5048456;28;20196;-79
2022/11/01 00:39:42;;;;;;;7.60;3.65;;;;;20.50;100627.00;;;;5052500;28;20227;-79
2022/11/01 00:42:09;;;;;;;6.43;3.10;;;;;20.60;100629.00;;;;5059758;28;20199;-80
2022/11/01 00:44:36;;;;;;;6.38;3.58;;;;;20.60;100624.00;;;;5052430;28;20196;-80
2022/11/01 00:47:03;;;;;;;6.13;3.28;;;;;20.60;100609.00;;;;5054219;28;20202;-80
2022/11/01 00:49:31;;;;;;;4.15;3.13;;;;;20.60;100599.00;;;;5060936;28;20203;-80
2022/11/01 00:51:58;;;;;;;5.85;3.63;;;;;20.60;100595.00;;;;5051037;28;20203;-79
2022/11/01 00:54:25;;;;;;;9.10;3.38;;;;;20.60;100595.00;;;;5049754;28;20214;-80
2022/11/01 00:56:54;;;;;;;4.25;3.33;;;;;20.60;100594.00;;;;5066163;28;20203;-80
2022/11/01 00:59:22;;;;;;;7.00;3.40;;;;;20.60;100603.00;;;;5054482;28;20191;-80
2022/11/01 01:01:49;;;;;;;4.38;3.30;;;;;20.60;100597.00;;;;5058246;28;20310;-78
2022/11/01 01:04:16;;;;;;;4.95;3.35;;;;;20.60;100599.00;;;;5054169;28;20198;-78
2022/11/01 01:06:44;;;;;;;4.60;3.35;;;;;20.60;100592.00;;;;5058771;28;20591;-77
2022/11/01 01:09:11;;;;;;;6.20;3.47;;;;;20.70;100588.00;;;;5052059;28;20584;-77
2022/11/01 01:11:39;;;;;;;8.18;3.65;;;;;20.70;100587.00;;;;5051779;28;20218;-78
2022/11/01 01:14:07;;;;;;;7.70;3.78;;;;;20.70;100580.00;;;;5053932;28;20201;-77
2022/11/01 01:16:35;;;;;;;8.32;3.63;;;;;20.70;100574.00;;;;5050764;28;20195;-78
2022/11/01 01:19:02;;;;;;;4.80;3.25;;;;;20.70;100580.00;;;;5051703;28;20207;-77
2022/11/01 01:21:29;;;;;;;6.30;2.75;;;;;20.70;100570.00;;;;5058660;28;20223;-77
2022/11/01 01:23:57;;;;;;;5.60;3.17;;;;;20.70;100578.00;;;;5046603;28;20192;-78
2022/11/01 01:26:24;;;;;;;6.50;2.85;;;;;20.70;100567.00;;;;5046703;28;20211;-78
2022/11/01 01:28:54;;;;;;;3.40;2.72;;;;;20.70;100569.00;;;;5051996;28;20196;-78
2022/11/01 01:31:23;;;;;;;6.65;3.20;;;;;20.70;100566.00;;;;5050878;28;20195;-79
2022/11/01 01:33:50;;;;;;;5.53;3.22;;;;;20.70;100572.00;;;;5062315;28;20238;-79
2022/11/01 01:36:17;;;;;;;6.68;2.70;;;;;20.70;100570.00;;;;5056355;28;20219;-79
2022/11/01 01:38:45;;;;;;;3.88;2.70;;;;;20.70;100568.00;;;;5046472;28;20215;-79
2022/11/01 01:43:58;;;;;;;9.60;3.13;;;;;20.80;100565.00;;;;5050448;28;20210;-78
2022/11/01 01:46:26;;;;;;;6.82;3.13;;;;;20.70;100564.00;;;;5054646;28;20207;-79
2022/11/01 01:48:58;;;;;;;8.60;3.13;;;;;20.70;100565.00;;;;5057996;28;20202;-79
2022/11/01 01:51:29;;;;;;;10.63;3.28;;;;;20.80;100566.00;;;;5065054;28;20203;-79
2022/11/01 01:53:59;;;;;;;6.93;2.80;;;;;20.80;100566.00;;;;5055325;28;20576;-79
2022/11/01 01:56:31;;;;;;;9.07;3.20;;;;;20.80;100563.00;;;;5052369;28;20684;-79
2022/11/01 01:59:03;;;;;;;5.10;2.90;;;;;20.80;100566.00;;;;5051444;28;20199;-79
2022/11/01 02:01:34;;;;;;;7.53;2.97;;;;;20.80;100558.00;;;;5053059;28;20219;-78
2022/11/01 02:04:02;;;;;;;6.95;2.58;;;;;20.90;100554.00;;;;5051664;28;20230;-79
2022/11/01 02:06:32;;;;;;;4.55;3.05;;;;;20.90;100551.00;;;;5049164;28;20670;-79
2022/11/01 02:09:02;;;;;;;4.93;3.47;;;;;20.90;100542.00;;;;5050937;28;20216;-79
2022/11/01 02:11:30;;;;;;;3.58;2.55;;;;;20.90;100545.00;;;;5050179;28;20584;-79
2022/11/01 02:13:58;;;;;;;5.30;2.95;;;;;21.00;100546.00;;;;5051132;28;20569;-79
2022/11/01 02:16:50;;;;;;;3.53;2.30;;;;;20.90;100544.00;;;;5051698;28;20669;-79
2022/11/01 02:20:02;;;;;;;3.05;2.30;;;;;20.90;100548.00;;;;5050289;28;20211;-80
2022/11/01 02:22:51;;;;;;;7.45;2.65;;;;;21.00;100541.00;;;;5049616;28;20195;-79
2022/11/01 02:25:36;;;;;;;4.88;2.47;;;;;21.00;100548.00;;;;5053699;28;20187;-79
2022/11/01 02:28:29;;;;;;;3.25;2.08;;;;;21.00;100552.00;;;;5061073;28;20195;-79
2022/11/01 02:31:08;;;;;;;6.25;2.90;;;;;21.10;100548.00;;;;5053190;28;20210;-79
2022/11/01 02:33:42;;;;;;;5.03;3.13;;;;;21.10;100554.00;;;;5049028;28;20709;-78
2022/11/01 02:36:17;;;;;;;3.67;2.70;;;;;21.20;100542.00;;;;5056313;28;20215;-79
2022/11/01 02:38:48;;;;;;;3.75;2.50;;;;;21.20;100553.00;;;;5053563;28;20606;-79
2022/11/01 02:41:22;;;;;;;3.50;2.90;;;;;21.20;100556.00;;;;5049051;28;20227;-79
2022/11/01 02:43:54;;;;;;;6.72;2.92;;;;;21.30;100557.00;;;;5048777;28;20198;-79
2022/11/01 02:49:11;;;;;;;5.80;2.47;;;;;21.30;100562.00;;;;5056755;28;20733;-80
2022/11/01 02:51:40;;;;;;;4.55;2.55;;;;;21.40;100562.00;;;;5057332;28;20199;-78
2022/11/01 02:54:09;;;;;;;4.30;2.45;;;;;21.40;100569.00;;;;5059519;28;20199;-78
2022/11/01 02:56:38;;;;;;;3.83;2.40;;;;;21.50;100569.00;;;;5050135;28;20195;-79
2022/11/01 02:59:14;;;;;;;3.78;2.53;;;;;21.40;100562.00;;;;5052360;28;20192;-79
2022/11/01 03:01:44;;;;;;;2.53;2.20;;;;;21.50;100566.00;;;;5052021;28;20226;-79
2022/11/01 03:04:13;;;;;;;5.55;2.80;;;;;21.50;100556.00;;;;5051539;28;20206;-79
2022/11/01 03:06:47;;;;;;;3.45;2.17;;;;;21.50;100562.00;;;;5059382;28;20195;-79
2022/11/01 03:09:15;;;;;;;5.47;2.58;;;;;21.60;100558.00;;;;5053605;28;20222;-79
2022/11/01 03:11:52;;;;;;;4.57;3.03;;;;;21.50;100564.00;;;;5054286;28;20210;-79
2022/11/01 03:14:27;;;;;;;3.92;2.22;;;;;21.50;100572.00;;;;5048612;28;20218;-79
2022/11/01 03:16:59;;;;;;;4.97;2.63;;;;;21.60;100574.00;;;;5055562;28;20580;-78
2022/11/01 03:19:39;;;;;;;7.55;2.60;;;;;21.60;100586.00;;;;5051152;28;20270;-79
2022/11/01 03:22:11;;;;;;;5.03;2.17;;;;;21.60;100579.00;;;;5048479;28;20230;-79
2022/11/01 03:24:44;;;;;;;4.10;1.88;;;;;21.60;100583.00;;;;5050305;28;20245;-78
2022/11/01 03:27:19;;;;;;;4.65;2.25;;;;;21.60;100590.00;;;;5056200;28;22348;-79
2022/11/01 03:29:55;;;;;;;3.88;2.40;;;;;21.60;100601.00;;;;5054075;28;20198;-79
2022/11/01 03:32:27;;;;;;;3.95;2.53;;;;;21.70;100595.00;;;;5048241;28;20753;-78
2022/11/01 03:34:57;;;;;;;5.75;2.33;;;;;21.70;100600.00;;;;5051944;28;20227;-79
2022/11/01 03:37:26;;;;;;;7.32;3.08;;;;;21.70;100615.00;;;;5061777;28;20207;-79
2022/11/01 03:39:55;;;;;;;3.53;2.17;;;;;21.70;100623.00;;;;5058654;28;20200;-80
2022/11/01 03:42:24;;;;;;;6.60;2.53;;;;;21.70;100625.00;;;;5053701;28;20235;-79
2022/11/01 03:44:57;;;;;;;3.40;2.00;;;;;21.70;100638.00;;;;5052188;28;20199;-79
2022/11/01 03:47:25;;;;;;;2.95;1.77;;;;;21.80;100641.00;;;;5054354;28;20199;-79
2022/11/01 03:50:18;;;;;;;3.25;1.85;;;;;21.60;100653.00;;;;5052572;28;20195;-78
2022/11/01 03:52:45;;;;;;;2.10;1.00;;;;;21.70;100653.00;;;;5049294;28;20192;-79
2022/11/01 03:55:20;;;;;;;2.05;1.00;;;;;21.70;100653.00;;;;5059378;28;20200;-80
2022/11/01 03:57:49;;;;;;;2.00;0.77;;;;;21.60;100665.00;;;;5056370;28;20191;-79
2022/11/01 04:00:18;;;;;;;2.78;0.75;;;;;21.50;100674.00;;;;5047758;28;20410;-79
2022/11/01 04:02:46;;;;;;;3.42;0.50;;;;;21.50;100662.00;;;;5062426;28;20234;-79
2022/11/01 04:05:14;;;;;;;0.77;0.43;;;;;21.40;100679.00;;;;5052389;28;20583;-78
2022/11/01 04:07:43;;;;;;;1.98;0.85;;;;;21.40;100679.00;;;;5048583;28;20672;-79
2022/11/01 04:10:11;;;;;;;1.77;0.50;;;;;21.30;100683.00;;;;5054118;28;20192;-79
2022/11/01 04:12:39;;;;;;;1.30;0.40;;;;;21.30;100697.00;;;;5049008;28;20211;-79
2022/11/01 04:20:50;;;;;;;2.35;0.60;;;;;21.10;100711.00;;;;5047972;28;20309;-79
2022/11/01 04:23:19;;;;;;;2.88;0.70;;;;;21.10;100707.00;;;;5053423;28;20215;-79
2022/11/01 04:25:46;;;;;;;1.00;0.70;;;;;21.10;100722.00;;;;5048896;28;20701;-79
2022/11/01 04:28:15;;;;;;;2.63;0.57;;;;;21.00;100721.00;;;;5052924;28;20732;-80
2022/11/01 04:30:43;;;;;;;3.30;0.40;;;;;21.00;100728.00;;;;5057660;28;20192;-79
2022/11/01 04:33:11;;;;;;;1.95;0.47;;;;;21.00;100734.00;;;;5048083;28;20309;-78
2022/11/01 04:35:39;;;;;;;0.50;0.30;;;;;21.00;100736.00;;;;5047953;28;20212;-79
2022/11/01 04:38:07;;;;;;;0.75;0.28;;;;;20.90;100742.00;;;;5048647;28;20187;-78
2022/11/01 04:40:35;;;;;;;4.78;0.50;;;;;20.90;100750.00;;;;5047527;28;20221;-79
2022/11/01 04:43:03;;;;;;;2.15;0.73;;;;;20.80;100760.00;;;;5051668;28;20199;-79
2022/11/01 04:45:30;;;;;;;2.42;0.50;;;;;20.80;100760.00;;;;5062620;28;20198;-79
2022/11/01 04:48:05;;;;;;;2.47;0.80;;;;;20.70;100764.00;;;;5052336;28;20191;-79
2022/11/01 04:50:33;;;;;;;6.53;0.40;;;;;20.70;100770.00;;;;5060870;28;20555;-79
2022/11/01 04:53:01;;;;;;;2.55;0.60;;;;;20.70;100787.00;;;;5047847;28;20666;-79
2022/11/01 04:55:29;;;;;;;3.00;0.50;;;;;20.60;100785.00;;;;5053219;28;20200;-78
2022/11/01 04:57:58;;;;;;;1.45;0.52;;;;;20.50;100804.00;;;;5058811;28;20572;-77
2022/11/01 05:00:26;;;;;;;1.48;0.73;;;;;20.50;100807.00;;;;5048094;28;20199;-77
2022/11/01 05:03:00;;;;;;;2.75;0.43;;;;;20.50;100806.00;;;;5050568;28;20196;-78
2022/11/01 05:05:27;;;;;;;2.28;0.30;;;;;20.40;100804.00;;;;5047039;28;20265;-78
2022/11/01 05:08:00;;;;;;;2.08;0.70;;;;;20.30;100804.00;;;;5047841;28;20196;-78
2022/11/01 05:10:28;;;;;;;3.22;0.35;;;;;20.30;100803.00;;;;5047057;28;20218;-78
2022/11/01 05:12:57;;;;;;;2.22;0.40;;;;;20.20;100793.00;;;;5048027;28;20554;-78
2022/11/01 05:15:24;;;;;;;1.95;0.35;;;;;20.20;100795.00;;;;5048524;28;20218;-78
2022/11/01 05:17:51;;;;;;;0.95;0.45;;;;;20.10;100800.00;;;;5048044;28;20569;-78
2022/11/01 05:20:19;;;;;;;2.25;0.77;;;;;20.10;100815.00;;;;5052332;28;20565;-78
2022/11/01 05:22:47;;;;;;;4.60;0.90;;;;;20.00;100811.00;;;;5051871;28;20227;-78
2022/11/01 05:25:14;;;;;;;1.90;0.57;;;;;20.00;100813.00;;;;5053910;28;20230;-78
2022/11/01 05:27:41;;;;;;;1.20;0.43;;;;;19.90;100804.00;;;;5063499;28;20204;-78
2022/11/01 05:30:12;;;;;;;2.45;0.45;;;;;19.90;100812.00;;;;5056779;28;20214;-78
2022/11/01 05:32:39;;;;;;;1.40;0.43;;;;;19.80;100811.00;;;;5051189;28;20199;-79
2022/11/01 05:35:07;;;;;;;3.97;0.43;;;;;19.80;100806.00;;;;5055970;28;20235;-78
2022/11/01 05:37:35;;;;;;;2.30;0.30;;;;;19.80;100807.00;;;;5052025;28;20274;-78
2022/11/01 05:40:04;;;;;;;1.65;0.43;;;;;19.70;100810.00;;;;5050998;28;20192;-77
2022/11/01 05:42:31;;;;;;;3.03;0.30;;;;;19.70;100812.00;;;;5051656;28;20223;-77
2022/11/01 05:44:59;;;;;;;2.67;0.35;;;;;19.60;100822.00;;;;5051852;28;20191;-77
2022/11/01 05:47:27;;;;;;;1.42;0.63;;;;;19.60;100810.00;;;;5050036;28;20192;-79
2022/11/01 05:49:55;;;;;;;3.28;0.45;;;;;19.60;100813.00;;;;5063195;28;20203;-79
2022/11/01 05:52:22;;;;;;;2.03;0.40;;;;;19.50;100813.00;;;;5052892;28;20685;-79
2022/11/01 05:54:50;;;;;;;1.48;0.35;;;;;19.50;100828.00;;;;5061062;28;20290;-79
2022/11/01 05:57:17;;;;;;;1.42;0.55;;;;;19.50;100828.00;;;;5057955;28;20194;-80
2022/11/01 05:59:45;;;;;;;1.55;0.38;;;;;19.50;100829.00;;;;5050283;28;20203;-79
2022/11/01 06:02:12;;;;;;;1.80;0.40;;;;;19.40;100839.00;;;;5050795;28;20704;-79
2022/11/01 06:04:41;;;;;;;2.38;0.40;;;;;19.40;100830.00;;;;5051046;28;20286;-79
2022/11/01 06:07:08;;;;;;;1.90;0.40;;;;;19.40;100828.00;;;;5050216;28;20207;-79
2022/11/01 06:09:35;;;;;;;2.05;0.50;;;;;19.40;100833.00;;;;5057111;28;20219;-77
2022/11/01 06:12:03;;;;;;;3.35;0.47;;;;;19.40;100851.00;;;;5056184;28;20218;-79
2022/11/01 06:14:30;;;;;;;1.20;0.43;;;;;19.30;100864.00;;;;5048741;28;20199;-80
2022/11/01 06:16:58;;;;;;;0.65;0.30;;;;;19.30;100872.00;;;;5051817;28;20195;-80
2022/11/01 06:19:25;;;;;;;2.95;0.35;;;;;19.30;100869.00;;;;5061693;28;20677;-79
2022/11/01 06:21:54;;;;;;;4.38;0.63;;;;;19.30;100870.00;;;;5056070;28;20587;-79
2022/11/01 06:24:21;;;;;;;3.83;0.47;;;;;19.30;100872.00;;;;5056355;28;20582;-79
2022/11/01 06:26:48;;;;;;;2.60;0.60;;;;;19.30;100875.00;;;;5052766;28;20199;-79
2022/11/01 06:29:16;;;;;;;3.50;0.60;;;;;19.20;100885.00;;;;5065536;28;20661;-78
2022/11/01 06:31:44;;;;;;;5.40;0.77;;;;;19.20;100873.00;;;;5055201;28;20253;-78
2022/11/01 06:34:11;;;;;;;2.03;0.50;;;;;19.20;100903.00;;;;5054746;28;20580;-78
2022/11/01 06:36:38;;;;;;;3.33;1.02;;;;;19.10;100897.00;;;;5053955;28;20215;-78
2022/11/01 06:39:07;;;;;;;1.95;0.50;;;;;19.00;100898.00;;;;5063198;28;20187;-78
2022/11/01 06:41:34;;;;;;;2.88;0.70;;;;;19.00;100908.00;;;;5049422;28;20587;-78
2022/11/01 06:44:02;;;;;;;3.45;0.40;;;;;19.00;100917.00;;;;5054795;28;20575;-79
2022/11/01 06:46:29;;;;;;;3.03;0.63;;;;;19.00;100916.00;;;;5052962;28;20588;-78
2022/11/01 06:48:57;;;;;;;3.38;0.80;;;;;18.90;100912.00;;;;5053526;28;20684;-75
2022/11/01 06:51:24;;;;;;;1.38;0.47;;;;;18.90;100913.00;;;;5056127;28;20210;-75
2022/11/01 06:53:51;;;;;;;3.00;0.50;;;;;18.90;100921.00;;;;5053254;28;20215;-78
2022/11/01 06:56:20;;;;;;;5.57;1.10;;;;;18.80;100931.00;;;;5053182;28;20199;-77
2022/11/01 06:58:49;;;;;;;3.08;0.60;;;;;18.80;100932.00;;;;5051297;28;20202;-78
2022/11/01 07:01:17;;;;;;;6.97;0.90;;;;;18.80;100928.00;;;;5055885;28;20223;-77
2022/11/01 07:03:45;;;;;;;2.53;0.60;;;;;18.80;100921.00;;;;5048917;28;20196;-77
2022/11/01 07:06:13;;;;;;;4.88;0.95;;;;;18.70;100932.00;;;;5048938;28;20723;-77
2022/11/01 07:08:40;;;;;;;4.28;0.80;;;;;18.70;100937.00;;;;5050961;28;20234;-76
2022/11/01 07:11:10;;;;;;;4.68;0.43;;;;;18.70;100949.00;;;;5049778;28;20195;-78
2022/11/01 07:13:38;;;;;;;2.88;0.80;;;;;18.70;100940.00;;;;5058155;28;20203;-78
2022/11/01 07:16:06;;;;;;;3.10;0.68;;;;;18.70;100960.00;;;;5060272;28;20587;-78
2022/11/01 07:18:34;;;;;;;6.95;1.00;;;;;18.70;100961.00;;;;5060194;28;20203;-78
2022/11/01 07:21:03;;;;;;;2.70;0.82;;;;;18.70;100974.00;;;;5053106;28;20199;-79
2022/11/01 07:23:30;;;;;;;4.28;0.63;;;;;18.70;100985.00;;;;5050133;28;20196;-78
2022/11/01 07:25:58;;;;;;;5.13;0.70;;;;;18.80;100980.00;;;;5059267;28;20409;-78
2022/11/01 07:28:25;;;;;;;2.42;0.60;;;;;18.80;100983.00;;;;5049359;28;20200;-78
2022/11/01 07:30:55;;;;;;;8.02;0.82;;;;;18.70;101004.00;;;;5048186;28;20195;-78
2022/11/01 07:33:22;;;;;;;3.90;0.70;;;;;18.80;101004.00;;;;5060309;28;20239;-78
2022/11/01 07:35:52;;;;;;;4.65;0.95;;;;;18.80;101007.00;;;;5049959;28;20309;-78
2022/11/01 07:38:20;;;;;;;2.55;0.65;;;;;18.80;101007.00;;;;5052511;28;20198;-77
2022/11/01 07:40:48;;;;;;;4.30;0.77;;;;;18.80;101014.00;;;;5064164;28;20728;-78
2022/11/01 07:43:16;;;;;;;3.70;0.60;;;;;18.80;101007.00;;;;5056499;28;20293;-78
2022/11/01 07:45:44;;;;;;;6.13;0.88;;;;;18.90;101027.00;;;;5049190;28;20661;-77
2022/11/01 07:48:14;;;;;;;4.18;0.50;;;;;18.80;101022.00;;;;5043841;28;20207;-78
2022/11/01 07:50:43;;;;;;;2.95;0.55;;;;;18.90;101028.00;;;;5054927;28;20269;-76
2022/11/01 07:53:12;;;;;;;2.28;0.73;;;;;18.90;101037.00;;;;5056005;28;20206;-75
2022/11/01 07:55:40;;;;;;;2.97;0.50;;;;;18.90;101039.00;;;;5060610;28;20586;-75
2022/11/01 07:58:08;;;;;;;5.38;0.93;;;;;19.00;101035.00;;;;5056462;28;20191;-78
2022/11/01 08:00:36;;;;;;;3.00;0.85;;;;;19.00;101039.00;;;;5048939;28;20204;-77
2022/11/01 08:03:05;;;;;;;4.82;0.93;;;;;19.00;101045.00;;;;5057280;28;20328;-77
2022/11/01 08:05:34;;;;;;;4.47;0.82;;;;;19.10;101046.00;;;;5048601;28;20214;-77
2022/11/01 08:08:01;;;;;;;3.15;0.60;;;;;19.10;101051.00;;;;5055542;28;20219;-77
2022/11/01 08:10:29;;;;;;;3.42;0.90;;;;;19.10;101048.00;;;;5064047;28;20386;-76
2022/11/01 08:13:02;;;;;;;3.30;0.93;;;;;19.10;101055.00;;;;5051845;28;20257;-77
2022/11/01 08:15:29;;;;;;;5.18;1.05;;;;;19.20;101054.00;;;;5056906;28;20206;-76
2022/11/01 08:17:57;;;;;;;5.45;1.27;;;;;19.20;101050.00;;;;5055242;28;20222;-77
2022/11/01 08:20:24;;;;;;;4.03;0.90;;;;;19.20;101063.00;;;;5047710;28;20211;-79
2022/11/01 08:22:53;;;;;;;3.13;1.10;;;;;19.20;101064.00;;;;5044781;28;20293;-78
2022/11/01 08:25:21;;;;;;;5.97;0.60;;;;;19.30;101064.00;;;;5051145;28;20215;-78
2022/11/01 08:27:48;;;;;;;4.50;0.93;;;;;19.30;101077.00;;;;5053510;28;20598;-77
2022/11/01 08:30:17;;;;;;;1.98;0.38;;;;;19.30;101065.00;;;;5048817;28;20218;-76
2022/11/01 08:32:45;;;;;;;4.28;0.93;;;;;19.30;101085.00;;;;5060320;28;20195;-77
2022/11/01 08:35:12;;;;;;;6.63;0.93;;;;;19.30;101094.00;;;;5059402;28;20626;-76
2022/11/01 08:37:47;;;;;;;4.43;1.05;;;;;19.40;101108.00;;;;5046218;28;20204;-77
2022/11/01 08:40:16;;;;;;;8.48;0.98;;;;;19.30;101085.00;;;;5060025;28;20199;-78
2022/11/01 08:42:43;;;;;;;8.45;1.58;;;;;19.30;101099.00;;;;5045265;28;20727;-77
2022/11/01 08:45:10;;;;;;;3.55;0.65;;;;;19.30;101095.00;;;;5052928;28;20214;-77
2022/11/01 08:47:38;;;;;;;6.78;0.90;;;;;19.40;101107.00;;;;5053356;28;20275;-78
2022/11/01 08:50:06;;;;;;;5.43;0.65;;;;;19.40;101100.00;;;;5068168;28;20277;-78
2022/11/01 08:52:34;;;;;;;3.03;0.63;;;;;19.40;101100.00;;;;5045205;28;20206;-78
2022/11/01 08:55:02;;;;;;;5.97;0.88;;;;;19.40;101116.00;;;;5044172;28;20199;-79
2022/11/01 08:57:31;;;;;;;6.32;0.90;;;;;19.40;101112.00;;;;5055409;28;20202;-78
2022/11/01 08:59:59;;;;;;;5.68;1.05;;;;;19.40;101107.00;;;;5053035;28;20203;-79
2022/11/01 09:02:26;;;;;;;6.22;0.85;;;;;19.40;101108.00;;;;5045624;28;20234;-80
2022/11/01 09:04:53;;;;;;;9.55;1.13;;;;;19.40;101116.00;;;;5055750;28;20199;-79
2022/11/01 09:07:21;;;;;;;5.10;1.10;;;;;19.40;101111.00;;;;5049665;28;20210;-79
2022/11/01 09:09:48;;;;;;;5.57;1.10;;;;;19.40;101132.00;;;;5062120;28;20580;-78
2022/11/01 09:12:15;;;;;;;7.43;0.95;;;;;19.40;101132.00;;;;5055158;28;20221;-79
2022/11/01 09:14:44;;;;;;;7.45;1.38;;;;;19.40;101138.00;;;;5057230;28;20196;-79
2022/11/01 09:17:11;;;;;;;4.68;0.88;;;;;19.40;101142.00;;;;5050125;28;20206;-79
2022/11/01 09:19:38;;;;;;;6.45;1.08;;;;;19.50;101128.00;;;;5050360;28;20202;-80
2022/11/01 09:22:06;;;;;;;7.80;0.70;;;;;19.50;101149.00;;;;5051178;28;20226;-79
2022/11/01 09:24:33;;;;;;;4.85;1.30;;;;;19.50;101159.00;;;;5060161;28;20201;-79
2022/11/01 09:27:02;;;;;;;6.93;0.98;;;;;19.50;101148.00;;;;5054434;28;20670;-79
2022/11/01 09:29:29;;;;;;;5.78;1.83;;;;;19.60;101149.00;;;;5050762;28;20203;-78
2022/11/01 09:31:57;;;;;;;3.95;0.90;;;;;19.60;101151.00;;;;5050053;28;20191;-78
2022/11/01 09:34:25;;;;;;;5.20;0.70;;;;;19.60;101142.00;;;;5051297;28;20242;-79
2022/11/01 09:36:52;;;;;;;2.97;0.90;;;;;19.60;101157.00;;;;5062143;28;20229;-77
2022/11/01 09:39:20;;;;;;;5.03;1.33;;;;;19.70;101151.00;;;;5071140;28;20202;-78
2022/11/01 09:41:51;;;;;;;4.45;0.73;;;;;19.70;101163.00;;;;5063761;28;20217;-78
2022/11/01 09:44:23;;;;;;;4.85;0.90;;;;;19.80;101165.00;;;;5048371;28;20718;-79
2022/11/01 09:46:53;;;;;;;7.78;0.73;;;;;19.80;101181.00;;;;5053031;28;20580;-79
2022/11/01 09:49:26;;;;;;;12.25;2.15;;;;;19.90;101179.00;;;;5050090;28;20204;-79
2022/11/01 09:51:55;;;;;;;6.70;1.42;;;;;20.00;101191.00;;;;5050823;28;20208;-78
2022/11/01 09:54:24;;;;;;;6.35;0.98;;;;;20.00;101199.00;;;;5052804;28;20656;-79
2022/11/01 09:57:07;;;;;;;5.18;1.20;;;;;20.10;101200.00;;;;5047897;28;20198;-80
2022/11/01 09:59:41;;;;;;;8.27;1.50;;;;;20.10;101201.00;;;;5051169;28;20195;-79
2022/11/01 10:02:32;;;;;;;9.23;1.15;;;;;20.10;101201.00;;;;5057489;28;20238;-79
2022/11/01 10:05:30;;;;;;;9.07;1.20;;;;;20.10;101207.00;;;;5055332;28;20203;-79
2022/11/01 10:08:04;;;;;;;5.40;1.05;;;;;20.20;101215.00;;;;5059323;28;20535;-79
2022/11/01 10:10:38;;;;;;;6.18;1.48;;;;;20.30;101219.00;;;;5046978;28;20207;-79
2022/11/01 10:13:18;;;;;;;4.63;0.77;;;;;20.30;101210.00;;;;5049593;28;20565;-79
2022/11/01 10:15:55;;;;;;;5.28;1.17;;;;;20.40;101225.00;;;;5064279;28;20557;-79
2022/11/01 10:18:27;;;;;;;3.30;1.02;;;;;20.50;101221.00;;;;5053887;28;20209;-79
2022/11/01 10:20:59;;;;;;;6.40;1.30;;;;;20.60;101234.00;;;;5049186;28;20196;-78
2022/11/01 10:23:43;;;;;;;4.03;0.80;;;;;20.60;101225.00;;;;5063204;28;20245;-78
2022/11/01 10:26:16;;;;;;;4.15;0.60;;;;;20.70;101214.00;;;;5065127;28;20558;-78
2022/11/01 10:28:51;;;;;;;3.35;0.68;;;;;20.80;101221.00;;;;5049869;28;20192;-79
2022/11/01 10:31:23;;;;;;;3.50;0.93;;;;;20.90;101213.00;;;;5049814;28;20214;-79
2022/11/01 10:33:57;;;;;;;6.82;1.08;;;;;20.90;101216.00;;;;5044934;28;20231;-78
2022/11/01 10:36:30;;;;;;;5.35;0.90;;;;;21.00;101214.00;;;;5046521;28;20620;-78
2022/11/01 10:39:06;;;;;;;5.05;0.70;;;;;21.00;101223.00;;;;5046308;28;20226;-79
2022/11/01 10:41:41;;;;;;;4.20;0.88;;;;;21.10;101223.00;;;;5050646;28;20206;-78
2022/11/01 10:44:15;;;;;;;5.45;0.90;;;;;21.10;101226.00;;;;5045253;28;20237;-78
2022/11/01 10:46:45;;;;;;;4.75;0.60;;;;;21.20;101224.00;;;;5046166;28;20202;-78
2022/11/01 10:49:21;;;;;;;7.88;1.23;;;;;21.30;101226.00;;;;5057936;28;20563;-78
2022/11/01 10:51:54;;;;;;;7.30;1.20;;;;;21.30;101215.00;;;;5058378;28;20191;-79
2022/11/01 10:54:25;;;;;;;4.82;1.25;;;;;21.40;101217.00;;;;5052917;28;20208;-79
2022/11/01 10:56:57;;;;;;;4.90;1.58;;;;;21.40;101234.00;;;;5062018;28;20199;-79
2022/11/01 10:59:29;;;;;;;3.63;0.88;;;;;21.40;101230.00;;;;5063013;28;20226;-77
2022/11/01 11:01:59;;;;;;;4.53;1.52;;;;;21.50;101234.00;;;;5060888;28;20226;-79
2022/11/01 11:04:27;;;;;;;5.95;1.10;;;;;21.50;101236.00;;;;5068843;28;20226;-79
2022/11/01 11:06:56;;;;;;;4.47;0.70;;;;;21.50;101234.00;;;;5063328;28;20228;-77
2022/11/01 11:09:28;;;;;;;4.07;0.88;;;;;21.50;101233.00;;;;5069532;28;20205;-78
2022/11/01 11:11:59;;;;;;;3.45;0.80;;;;;21.50;101246.00;;;;5069848;28;20199;-79
2022/11/01 11:14:30;;;;;;;7.10;1.20;;;;;21.60;101234.00;;;;5068949;28;20206;-78
2022/11/01 11:16:58;;;;;;;4.80;0.88;;;;;21.70;101244.00;;;;5057154;28;20694;-79
2022/11/01 11:19:32;;;;;;;7.88;1.05;;;;;21.60;101239.00;;;;5054029;28;20199;-78
2022/11/01 11:22:02;;;;;;;9.98;1.40;;;;;21.70;101241.00;;;;5066271;28;20371;-78
2022/11/01 11:24:34;;;;;;;9.02;1.65;;;;;21.70;101217.00;;;;5060871;28;20720;-79
2022/11/01 11:27:04;;;;;;;5.40;0.73;;;;;21.80;101228.00;;;;5048372;28;20195;-78
2022/11/01 11:29:44;;;;;;;5.57;0.73;;;;;21.80;101257.00;;;;5048737;28;20665;-77
2022/11/01 11:32:16;;;;;;;3.55;1.23;;;;;21.80;101239.00;;;;5049299;28;20203;-78
2022/11/01 11:34:44;;;;;;;3.00;0.73;;;;;21.90;101253.00;;;;5049198;28;20236;-79
2022/11/01 11:37:22;;;;;;;2.85;0.95;;;;;21.80;101251.00;;;;5048119;28;20207;-78
2022/11/01 11:40:20;;;;;;;3.10;1.25;;;;;21.80;101240.00;;;;5049134;28;20749;-78
2022/11/01 11:42:48;;;;;;;4.72;0.70;;;;;21.90;101242.00;;;;5049393;28;20223;-78
2022/11/01 11:45:22;;;;;;;2.85;0.68;;;;;21.90;101249.00;;;;5048470;28;20207;-78
2022/11/01 11:47:50;;;;;;;4.63;0.75;;;;;21.90;101242.00;;;;5049475;28;21116;-78
2022/11/01 11:50:27;;;;;;;4.32;0.65;;;;;21.90;101258.00;;;;5054826;28;20214;-78
2022/11/01 11:53:05;;;;;;;3.33;1.10;;;;;21.90;101258.00;;;;5068092;28;20195;-79
2022/11/01 11:55:40;;;;;;;4.22;0.60;;;;;22.00;101251.00;;;;5054672;28;20192;-78
2022/11/01 11:58:22;;;;;;;5.55;0.63;;;;;22.00;101253.00;;;;5048677;28;20728;-78
2022/11/01 12:00:53;;;;;;;2.90;0.73;;;;;22.10;101247.00;;;;5048658;28;20203;-78
2022/11/01 12:03:21;;;;;;;4.10;0.98;;;;;22.20;101253.00;;;;5055080;28;20705;-77
2022/11/01 12:05:58;;;;;;;3.22;0.68;;;;;22.10;101256.00;;;;5057811;28;20622;-78
2022/11/01 12:08:36;;;;;;;5.00;0.90;;;;;22.20;101255.00;;;;5048435;28;20242;-79
2022/11/01 12:11:04;;;;;;;2.17;0.60;;;;;22.30;101255.00;;;;5055914;28;20203;-79
2022/11/01 12:13:35;;;;;;;6.75;1.13;;;;;22.30;101258.00;;;;5048274;28;20238;-78
2022/11/01 12:16:16;;;;;;;4.03;1.25;;;;;22.30;101246.00;;;;5048461;28;20204;-80
2022/11/01 12:18:49;;;;;;;5.53;1.10;;;;;22.30;101247.00;;;;5048627;28;20191;-79
2022/11/01 12:21:20;;;;;;;5.03;0.90;;;;;22.40;101255.00;;;;5052716;28;20557;-78
2022/11/01 12:23:52;;;;;;;7.50;0.73;;;;;22.50;101258.00;;;;5051863;28;20223;-78
2022/11/01 12:26:21;;;;;;;3.60;0.85;;;;;22.50;101257.00;;;;5048411;28;20196;-79
2022/11/01 12:28:57;;;;;;;3.17;1.40;;;;;22.50;101241.00;;;;5048089;28;20196;-79
2022/11/01 12:31:25;;;;;;;5.03;0.60;;;;;22.60;101238.00;;;;5046585;28;20203;-78
2022/11/01 12:33:58;;;;;;;4.35;0.90;;;;;22.60;101238.00;;;;5047788;28;20251;-78